createdAt,value
2023-02-20T07:04:48.240Z,4.50
2023-02-20T07:29:14.636Z,4.72
2023-02-20T07:46:05.723Z,4.98
2023-02-20T07:54:41.734Z,5.13
2023-02-20T08:03:04.018Z,5.17
2023-02-20T08:11:49.761Z,5.29
2023-02-20T08:14:52.490Z,5.41
2023-02-20T08:17:54.993Z,5.46
2023-02-20T08:20:57.460Z,5.57
2023-02-20T08:23:59.900Z,5.61
2023-02-20T08:27:05.660Z,5.65
2023-02-20T08:35:00.249Z,5.72
2023-02-20T08:38:03.696Z,5.81
2023-02-20T08:41:08.347Z,5.92
2023-02-20T08:49:05.119Z,5.97
2023-02-20T08:52:07.545Z,6.08
2023-02-20T08:55:10.447Z,6.18
2023-02-20T09:02:43.161Z,6.27
2023-02-20T09:05:45.713Z,6.34
2023-02-20T09:08:48.468Z,6.43
2023-02-20T09:11:50.924Z,6.52
2023-02-20T09:14:53.373Z,6.60
2023-02-20T09:17:57.190Z,6.71
2023-02-20T09:20:59.615Z,6.78
2023-02-20T09:24:02.354Z,6.86
2023-02-20T09:27:06.330Z,6.92
2023-02-20T09:30:10.131Z,7.10
2023-02-20T09:33:14.266Z,7.12
2023-02-20T09:36:16.660Z,7.13
2023-02-20T09:39:19.494Z,7.15
2023-02-20T09:42:32.830Z,7.17
2023-02-20T09:45:39.737Z,7.19
2023-02-20T09:49:00.361Z,7.33
2023-02-20T09:52:06.918Z,7.45
2023-02-20T09:55:14.787Z,7.52
2023-02-20T09:58:27.385Z,7.66
2023-02-20T10:01:30.662Z,7.76
2023-02-20T10:04:47.103Z,7.83
2023-02-20T10:07:54.961Z,7.90
2023-02-20T10:11:03.349Z,8.00
2023-02-20T10:14:23.039Z,8.14
2023-02-20T10:17:35.608Z,8.25
2023-02-20T10:20:50.015Z,8.22
2023-02-20T10:24:05.312Z,8.19
2023-02-20T10:27:23.871Z,8.30
2023-02-20T10:30:32.348Z,8.42
2023-02-20T10:33:42.022Z,8.45
2023-02-20T10:36:49.558Z,8.61
2023-02-20T10:39:58.985Z,8.61
2023-02-20T10:43:06.864Z,8.43
2023-02-20T10:46:15.697Z,8.23
2023-02-20T10:49:24.697Z,8.28
2023-02-20T10:52:34.827Z,8.22
2023-02-20T10:55:43.030Z,8.20
2023-02-20T10:58:54.524Z,8.21
2023-02-20T11:01:59.040Z,8.22
2023-02-20T11:05:06.730Z,8.20
2023-02-20T11:21:46.602Z,7.89
2023-02-20T11:31:47.716Z,7.96
2023-02-20T11:52:19.712Z,8.10
2023-02-20T12:39:24.124Z,7.34
2023-02-20T13:08:03.841Z,7.16
2023-02-20T13:31:48.071Z,7.12
2023-02-20T13:34:50.849Z,7.19
2023-02-20T13:37:57.646Z,7.27
2023-02-20T13:56:56.466Z,7.32
2023-02-20T14:08:05.287Z,7.57
2023-02-20T14:11:10.116Z,7.71
2023-02-20T14:14:27.423Z,7.81
2023-02-20T14:17:29.816Z,7.90
2023-02-20T14:20:36.458Z,7.95
2023-02-20T14:23:40.593Z,8.11
